Time;durP1;ratioP1;P1;durP2;ratioP2;P2;SDS_P1;SDS_P2;PMS_P1;PMS_P2;Temp;Humidity;BMP_temperature;BMP_pressure;BME280_temperature;BME280_humidity;BME280_pressure;Samples;Min_cycle;Max_cycle;Signal;HPM_P1;HPM_P2
2022/12/11 00:02:07;;;;;;;26.17;18.57;;;;;;;0.24;83.50;99796.00;5100127;28;20483;-60
2022/12/11 00:04:34;;;;;;;34.20;19.90;;;;;;;0.26;83.75;99799.41;5084459;28;20570;-59
2022/12/11 00:07:01;;;;;;;32.73;19.90;;;;;;;0.31;83.54;99802.63;5091417;28;20501;-60
2022/12/11 00:09:27;;;;;;;30.63;18.37;;;;;;;0.25;83.05;99801.19;5101378;28;20518;-60
2022/12/11 00:11:56;;;;;;;31.10;19.83;;;;;;;0.16;83.61;99793.81;5100178;28;20483;-60
2022/12/11 00:14:23;;;;;;;34.67;20.90;;;;;;;0.17;84.00;99796.38;5085566;28;20476;-60
2022/12/11 00:16:49;;;;;;;33.90;20.13;;;;;;;0.22;84.18;99795.25;5095884;28;20497;-60
2022/12/11 00:19:16;;;;;;;36.10;19.67;;;;;;;0.23;83.58;99802.22;5100978;28;20773;-60
2022/12/11 00:21:43;;;;;;;35.17;21.17;;;;;;;0.14;83.90;99790.41;5100327;28;20475;-60
2022/12/11 00:24:10;;;;;;;30.53;18.43;;;;;;;0.22;84.25;99788.22;5088071;28;20440;-60
2022/12/11 00:26:37;;;;;;;38.03;19.43;;;;;;;0.28;83.96;99793.13;5093439;28;20475;-60
2022/12/11 00:29:07;;;;;;;31.13;19.20;;;;;;;0.22;84.20;99797.88;5101548;28;20423;-60
2022/12/11 00:31:33;;;;;;;33.77;20.70;;;;;;;0.17;84.33;99787.63;5099248;28;20483;-60
2022/12/11 00:34:01;;;;;;;39.33;20.90;;;;;;;0.23;84.34;99789.91;5089103;28;20476;-60
2022/12/11 00:36:28;;;;;;;43.73;20.27;;;;;;;0.09;84.54;99785.44;5094137;28;20471;-60
2022/12/11 00:38:55;;;;;;;31.50;19.37;;;;;;;0.14;84.77;99783.41;5100395;28;20883;-60
2022/12/11 00:41:22;;;;;;;36.10;21.07;;;;;;;0.18;84.83;99786.69;5099246;28;20493;-60
2022/12/11 00:43:48;;;;;;;33.37;20.50;;;;;;;0.24;84.95;99788.97;5091383;28;20436;-60
2022/12/11 00:46:17;;;;;;;33.73;20.00;;;;;;;0.22;85.57;99790.00;5097878;28;20475;-61
2022/12/11 00:48:45;;;;;;;29.93;20.30;;;;;;;0.21;85.39;99785.66;5099743;28;20435;-60
2022/12/11 00:51:12;;;;;;;40.70;22.50;;;;;;;0.23;86.13;99789.91;5100495;28;20471;-60
2022/12/11 00:53:39;;;;;;;36.10;20.57;;;;;;;0.19;85.53;99788.38;5093992;28;20518;-60
2022/12/11 00:56:11;;;;;;;37.90;23.33;;;;;;;0.23;85.96;99789.91;5083223;28;20963;-60
2022/12/11 00:58:38;;;;;;;38.20;22.40;;;;;;;0.17;86.15;99806.00;5096078;28;20507;-61
2022/12/11 01:01:09;;;;;;;40.35;23.10;;;;;;;0.24;86.25;99803.91;5103137;28;20520;-60
2022/12/11 01:03:37;;;;;;;43.30;22.77;;;;;;;0.25;86.87;99801.19;5096594;28;20217;-60
2022/12/11 01:06:05;;;;;;;36.17;21.37;;;;;;;0.32;85.84;99799.06;5083642;28;20468;-60
2022/12/11 01:08:32;;;;;;;42.97;24.20;;;;;;;0.28;86.62;99802.78;5101773;28;20505;-60
2022/12/11 01:11:02;;;;;;;56.70;28.10;;;;;;;0.23;87.55;99807.47;5100019;28;20467;-61
2022/12/11 01:13:36;;;;;;;52.30;26.80;;;;;;;0.13;88.83;99799.25;5096219;28;20491;-60
2022/12/11 01:16:06;;;;;;;59.67;28.73;;;;;;;0.04;89.87;99802.41;5081299;28;20499;-61
2022/12/11 01:18:33;;;;;;;55.70;28.33;;;;;;;0.03;90.15;99803.31;5098122;28;20435;-60
2022/12/11 01:21:05;;;;;;;58.73;26.60;;;;;;;0.01;90.73;99799.94;5101101;28;20475;-61
2022/12/11 01:23:32;;;;;;;54.60;26.60;;;;;;;0.15;90.53;99800.84;5101377;28;20489;-60
2022/12/11 01:26:04;;;;;;;55.20;28.20;;;;;;;0.20;90.20;99805.00;5098637;28;21056;-61
2022/12/11 01:28:31;;;;;;;56.27;28.27;;;;;;;0.11;90.44;99804.59;5101882;28;20459;-61
2022/12/11 01:30:57;;;;;;;64.67;29.53;;;;;;;0.20;90.58;99805.00;5099701;28;21062;-61
2022/12/11 01:33:24;;;;;;;50.37;26.40;;;;;;;0.21;90.29;99804.94;5091672;28;20535;-61
2022/12/11 01:35:51;;;;;;;60.27;26.43;;;;;;;0.25;89.96;99803.81;5091519;28;20838;-61
2022/12/11 01:38:19;;;;;;;49.45;26.17;;;;;;;0.22;90.23;99800.50;5102585;28;20521;-61
2022/12/11 01:40:46;;;;;;;62.60;27.00;;;;;;;0.13;90.00;99804.50;5102106;28;20257;-61
2022/12/11 01:43:13;;;;;;;57.73;29.17;;;;;;;0.29;89.36;99805.31;5094325;28;20531;-61
2022/12/11 01:45:40;;;;;;;55.20;27.00;;;;;;;0.35;89.39;99802.38;5093133;28;20486;-60
2022/12/11 01:48:10;;;;;;;54.37;27.80;;;;;;;0.14;90.11;99804.44;5102780;28;20793;-60
2022/12/11 01:50:39;;;;;;;64.40;28.10;;;;;;;0.23;90.95;99804.84;5100570;28;20498;-60
2022/12/11 01:53:09;;;;;;;68.73;28.17;;;;;;;0.20;91.17;99800.59;5095799;28;20445;-60
2022/12/11 01:55:38;;;;;;;54.43;28.40;;;;;;;0.20;91.53;99800.59;5091641;28;20502;-60
2022/12/11 01:58:05;;;;;;;70.90;30.70;;;;;;;0.14;91.62;99799.16;5102465;28;20520;-60
2022/12/11 02:00:32;;;;;;;78.10;30.77;;;;;;;0.27;91.31;99799.31;5100579;28;21084;-60
2022/12/11 02:02:59;;;;;;;95.73;33.57;;;;;;;0.25;92.16;99801.19;5095799;28;21316;-60
2022/12/11 02:05:25;;;;;;;74.37;33.57;;;;;;;0.12;92.37;99801.03;5097223;28;20473;-60
2022/12/11 02:07:55;;;;;;;71.03;31.17;;;;;;;0.25;92.64;99795.94;5102322;28;20496;-60
2022/12/11 02:10:23;;;;;;;73.40;31.33;;;;;;;0.09;92.67;99782.81;5101785;28;20513;-60
2022/12/11 02:12:58;;;;;;;85.17;34.50;;;;;;;0.15;92.80;99795.59;5096992;28;20437;-59
2022/12/11 02:15:30;;;;;;;78.43;31.60;;;;;;;0.18;92.96;99791.94;5081200;28;20559;-60
2022/12/11 02:18:03;;;;;;;81.27;34.10;;;;;;;0.16;93.24;99789.41;5062405;28;20456;-60
2022/12/11 02:20:34;;;;;;;73.57;31.63;;;;;;;0.15;93.45;99787.69;5062697;28;20465;-60
2022/12/11 02:23:39;;;;;;;80.13;31.63;;;;;;;0.27;93.13;99783.53;5094790;28;20441;-60
2022/12/11 02:26:19;;;;;;;90.90;31.97;;;;;;;0.45;91.47;99783.44;5061844;28;20785;-60
2022/12/11 02:28:49;;;;;;;68.53;32.60;;;;;;;0.26;92.11;99773.09;5087468;28;20448;-60
2022/12/11 02:31:21;;;;;;;83.50;35.10;;;;;;;0.26;92.61;99783.63;5099920;28;20499;-60
2022/12/11 02:33:52;;;;;;;71.40;31.40;;;;;;;0.23;93.55;99771.50;5097374;28;20524;-60
2022/12/11 02:36:21;;;;;;;65.80;31.80;;;;;;;0.23;93.69;99774.16;5082399;28;20481;-60
2022/12/11 02:38:50;;;;;;;94.13;32.50;;;;;;;0.31;93.20;99771.06;5085268;28;20546;-60
2022/12/11 02:41:19;;;;;;;75.83;33.07;;;;;;;0.18;93.50;99773.56;5100654;28;20547;-60
2022/12/11 02:43:48;;;;;;;75.43;34.47;;;;;;;0.11;93.43;99769.56;5091466;28;20435;-60
2022/12/11 02:46:16;;;;;;;75.63;31.43;;;;;;;0.17;93.16;99772.72;5099474;28;21130;-60
2022/12/11 02:48:43;;;;;;;95.07;34.83;;;;;;;0.14;93.05;99772.00;5100879;28;20444;-60
2022/12/11 02:51:11;;;;;;;65.97;32.43;;;;;;;0.21;93.25;99768.13;5101416;28;20566;-60
2022/12/11 02:53:40;;;;;;;68.67;35.63;;;;;;;0.14;93.39;99769.38;5090932;28;20483;-60
2022/12/11 02:56:11;;;;;;;76.00;31.00;;;;;;;0.16;93.55;99763.13;5081147;28;20504;-60
2022/12/11 02:58:42;;;;;;;76.93;32.97;;;;;;;0.18;93.64;99768.28;5091703;28;20477;-60
2022/12/11 03:01:10;;;;;;;71.10;31.47;;;;;;;0.22;93.38;99768.97;5100260;28;21110;-60
2022/12/11 03:03:37;;;;;;;78.97;33.70;;;;;;;0.25;93.33;99766.16;5100983;28;21002;-60
2022/12/11 03:06:04;;;;;;;79.83;32.97;;;;;;;0.10;94.09;99765.25;5100890;28;20503;-60
2022/12/11 03:08:31;;;;;;;73.33;31.07;;;;;;;0.14;94.30;99764.13;5101864;28;20463;-60
2022/12/11 03:10:58;;;;;;;87.07;34.73;;;;;;;0.17;94.35;99766.59;5100355;28;21170;-60
2022/12/11 03:13:25;;;;;;;85.43;31.37;;;;;;;0.17;94.59;99764.84;5099562;28;20519;-60
2022/12/11 03:16:02;;;;;;;90.17;34.73;;;;;;;0.01;95.19;99766.59;5087556;28;20499;-60
2022/12/11 03:18:35;;;;;;;75.73;31.77;;;;;;;0.11;95.32;99764.31;5100993;28;20517;-60
2022/12/11 03:21:05;;;;;;;72.63;33.00;;;;;;;0.11;95.10;99773.03;5100157;28;20475;-60
2022/12/11 03:23:34;;;;;;;82.53;35.27;;;;;;;0.11;95.27;99767.78;5092637;28;20472;-60
2022/12/11 03:26:03;;;;;;;88.43;33.27;;;;;;;0.17;95.13;99763.97;5084573;28;20510;-60
2022/12/11 03:28:33;;;;;;;67.90;30.83;;;;;;;0.33;94.63;99774.44;5102199;28;20428;-60
2022/12/11 03:31:04;;;;;;;71.40;33.73;;;;;;;0.28;94.08;99777.34;5100227;28;20507;-60
2022/12/11 03:33:35;;;;;;;74.90;33.77;;;;;;;0.07;94.76;99775.91;5092459;28;20838;-60
2022/12/11 03:36:06;;;;;;;73.53;31.00;;;;;;;0.02;95.42;99776.19;5083988;28;20479;-60
2022/12/11 03:38:37;;;;;;;69.57;29.53;;;;;;;-0.03;95.90;99773.81;5101608;28;20550;-60
2022/12/11 03:41:05;;;;;;;72.07;33.50;;;;;;;0.02;95.98;99781.44;5099718;28;20812;-59
2022/12/11 03:43:33;;;;;;;80.83;34.13;;;;;;;0.05;96.21;99777.78;5091945;28;20516;-59
2022/12/11 03:46:00;;;;;;;68.50;32.10;;;;;;;0.12;95.94;99780.00;5081625;28;21039;-59
2022/12/11 03:48:30;;;;;;;71.73;30.87;;;;;;;0.05;96.20;99778.63;5100531;28;20424;-59
2022/12/11 03:50:59;;;;;;;75.80;32.37;;;;;;;0.10;96.70;99783.63;5099560;28;20491;-59
2022/12/11 03:53:26;;;;;;;71.77;32.70;;;;;;;0.16;96.82;99778.06;5094385;28;20465;-59
2022/12/11 03:55:53;;;;;;;69.33;32.87;;;;;;;0.16;96.66;99778.06;5092795;28;20483;-59
2022/12/11 03:58:19;;;;;;;72.40;33.90;;;;;;;0.23;96.93;99779.41;5101425;28;20487;-59
2022/12/11 04:00:46;;;;;;;72.50;31.90;;;;;;;0.23;96.57;99774.16;5099364;28;20468;-59
2022/12/11 04:03:12;;;;;;;71.53;35.80;;;;;;;0.32;96.51;99775.41;5096035;28;20877;-59
2022/12/11 04:05:39;;;;;;;84.90;34.53;;;;;;;0.12;96.32;99763.38;5094776;28;20503;-59
2022/12/11 04:08:07;;;;;;;77.10;34.87;;;;;;;0.15;96.77;99769.28;5091499;28;20468;-59
2022/12/11 04:10:34;;;;;;;71.33;33.67;;;;;;;0.24;96.93;99775.81;5093616;28;20519;-59
2022/12/11 04:13:00;;;;;;;77.63;34.20;;;;;;;0.35;96.63;99775.22;5099541;28;20844;-59
2022/12/11 04:15:26;;;;;;;85.67;35.13;;;;;;;0.34;95.66;99773.53;5089795;28;20777;-59
2022/12/11 04:26:07;;;;;;;66.63;30.33;;;;;;;0.14;97.10;99777.28;5083288;28;20486;-59
2022/12/11 04:28:35;;;;;;;88.47;36.30;;;;;;;0.24;96.86;99774.97;5082453;28;20474;-59
2022/12/11 04:31:01;;;;;;;72.30;34.90;;;;;;;0.18;96.83;99784.91;5097444;28;20540;-59
2022/12/11 04:33:28;;;;;;;80.13;32.50;;;;;;;0.13;97.04;99775.59;5088921;28;20445;-59
2022/12/11 04:35:57;;;;;;;81.13;32.70;;;;;;;0.23;97.05;99776.78;5087096;28;20479;-60
2022/12/11 04:38:25;;;;;;;68.63;32.03;;;;;;;0.25;97.21;99774.06;5084236;28;20514;-60
2022/12/11 04:40:58;;;;;;;71.77;33.33;;;;;;;0.23;97.01;99776.78;5088723;28;20539;-60
2022/12/11 04:43:24;;;;;;;72.67;36.57;;;;;;;0.18;97.12;99773.56;5087597;28;20527;-60
2022/12/11 04:45:51;;;;;;;74.23;33.80;;;;;;;0.23;97.27;99773.31;5099959;28;20494;-60
2022/12/11 04:48:17;;;;;;;83.70;33.60;;;;;;;0.27;97.08;99772.19;5085120;28;20548;-60
2022/12/11 04:50:44;;;;;;;71.90;31.67;;;;;;;0.28;97.34;99766.84;5085480;28;20491;-60
2022/12/11 04:53:11;;;;;;;84.67;34.20;;;;;;;0.23;97.23;99762.78;5088338;28;20474;-60
2022/12/11 04:55:40;;;;;;;79.53;36.30;;;;;;;0.33;97.30;99756.91;5089278;28;20479;-60
2022/12/11 04:58:07;;;;;;;80.50;33.67;;;;;;;0.21;96.92;99767.25;5083820;28;20495;-60
2022/12/11 05:00:33;;;;;;;80.00;33.60;;;;;;;0.32;96.94;99778.03;5082800;28;20546;-60
2022/12/11 05:03:00;;;;;;;76.80;32.97;;;;;;;0.29;96.63;99758.00;5084254;28;20424;-60
2022/12/11 05:05:26;;;;;;;75.53;33.13;;;;;;;0.29;96.93;99765.06;5083318;28;21033;-60
2022/12/11 05:07:53;;;;;;;76.60;32.13;;;;;;;0.33;96.93;99770.06;5083413;28;20996;-60
2022/12/11 05:10:20;;;;;;;74.10;34.53;;;;;;;0.27;96.93;99762.50;5083186;28;20475;-60
2022/12/11 05:12:48;;;;;;;74.33;31.00;;;;;;;0.29;96.70;99765.88;5084270;28;20471;-60
2022/12/11 05:15:14;;;;;;;79.47;33.47;;;;;;;0.31;96.83;99764.03;5084551;28;20502;-60
2022/12/11 05:17:41;;;;;;;71.47;32.13;;;;;;;0.30;96.67;99761.50;5091354;28;20550;-60
2022/12/11 05:20:09;;;;;;;71.03;30.80;;;;;;;0.23;96.36;99762.78;5082971;28;20461;-61
2022/12/11 05:22:36;;;;;;;78.67;34.90;;;;;;;0.25;96.49;99759.13;5102088;28;20467;-60
2022/12/11 05:25:03;;;;;;;79.33;32.93;;;;;;;0.34;96.67;99755.13;5095266;28;20528;-60
2022/12/11 05:27:29;;;;;;;68.77;31.57;;;;;;;0.38;96.47;99751.38;5102121;28;20515;-61
2022/12/11 05:29:58;;;;;;;76.37;30.77;;;;;;;0.38;96.21;99751.38;5087594;28;20523;-60
2022/12/11 05:32:24;;;;;;;71.50;30.80;;;;;;;0.28;95.51;99758.97;5094335;28;20491;-60
2022/12/11 05:34:51;;;;;;;69.90;29.87;;;;;;;0.24;95.18;99751.31;5083322;28;20504;-60
2022/12/11 05:37:18;;;;;;;68.83;29.50;;;;;;;0.25;94.88;99758.28;5097933;28;20801;-60
2022/12/11 05:39:44;;;;;;;66.60;28.57;;;;;;;0.41;94.48;99756.47;5091850;28;20459;-60
2022/12/11 05:42:11;;;;;;;60.03;26.27;;;;;;;0.29;93.96;99744.03;5096228;28;20482;-60
2022/12/11 05:44:37;;;;;;;65.93;29.30;;;;;;;0.25;94.34;99751.22;5083493;28;20432;-60
2022/12/11 05:47:05;;;;;;;56.10;24.87;;;;;;;0.14;93.92;99754.47;5085329;28;20480;-60
2022/12/11 05:49:32;;;;;;;61.40;26.73;;;;;;;0.18;93.33;99750.72;5082534;28;20483;-60
2022/12/11 05:51:58;;;;;;;56.80;27.47;;;;;;;0.10;93.09;99752.94;5099288;28;21086;-60
2022/12/11 05:54:25;;;;;;;59.70;25.00;;;;;;;0.14;93.23;99756.25;5093695;28;20443;-60
2022/12/11 05:56:52;;;;;;;63.50;27.40;;;;;;;0.14;93.09;99757.09;5096088;28;20473;-60
2022/12/11 05:59:18;;;;;;;53.33;24.03;;;;;;;0.17;92.99;99761.34;5083097;28;20442;-59
2022/12/11 06:01:45;;;;;;;56.53;24.47;;;;;;;0.17;92.95;99758.69;5081710;28;20499;-60
2022/12/11 06:04:13;;;;;;;47.60;23.30;;;;;;;0.28;92.16;99763.34;5083104;28;20471;-60
2022/12/11 06:06:42;;;;;;;59.03;23.83;;;;;;;0.32;91.57;99762.25;5082255;28;20502;-60
2022/12/11 06:09:14;;;;;;;57.30;21.50;;;;;;;0.14;91.76;99753.59;5082895;28;20437;-60
2022/12/11 06:11:41;;;;;;;50.53;22.90;;;;;;;0.04;91.38;99757.72;5079543;28;20479;-60
2022/12/11 06:14:08;;;;;;;56.30;24.87;;;;;;;0.10;91.64;99750.31;5083109;28;20451;-60
2022/12/11 06:16:34;;;;;;;51.23;20.50;;;;;;;0.01;91.21;99753.47;5081451;28;20488;-60
2022/12/11 06:19:01;;;;;;;51.30;24.47;;;;;;;-0.04;91.32;99745.81;5083013;28;20465;-60
2022/12/11 06:21:31;;;;;;;53.93;22.00;;;;;;;-0.11;91.52;99748.91;5081353;28;20500;-60
2022/12/11 06:23:59;;;;;;;50.47;23.80;;;;;;;0.00;91.83;99757.03;5083212;28;20464;-60
2022/12/11 06:26:26;;;;;;;49.77;21.70;;;;;;;0.12;91.34;99747.59;5081534;28;20567;-59
2022/12/11 06:28:53;;;;;;;40.70;17.40;;;;;;;0.08;89.40;99741.66;5082270;28;20428;-59
2022/12/11 06:31:20;;;;;;;47.60;22.03;;;;;;;0.05;88.95;99743.63;5080605;28;20475;-60
2022/12/11 06:33:47;;;;;;;52.10;22.00;;;;;;;-0.01;89.62;99743.03;5082168;28;20511;-60
2022/12/11 06:36:16;;;;;;;53.80;21.17;;;;;;;-0.04;90.31;99750.25;5080892;28;21075;-59
2022/12/11 06:38:44;;;;;;;43.03;19.83;;;;;;;-0.03;90.97;99744.91;5081816;28;20519;-60
2022/12/11 06:41:11;;;;;;;45.70;21.83;;;;;;;0.08;90.63;99746.09;5081091;28;20527;-60
2022/12/11 06:43:40;;;;;;;55.07;23.20;;;;;;;0.08;90.70;99746.09;5082407;28;20464;-60
2022/12/11 06:46:07;;;;;;;52.97;22.80;;;;;;;0.13;90.01;99741.41;5079319;28;20472;-60
2022/12/11 06:48:34;;;;;;;50.87;22.60;;;;;;;0.06;90.38;99745.34;5080159;28;20551;-61
2022/12/11 06:51:05;;;;;;;64.80;23.67;;;;;;;-0.07;90.96;99745.16;5085720;28;20904;-62
2022/12/11 06:53:32;;;;;;;54.57;23.90;;;;;;;-0.01;91.61;99747.44;5081945;28;20452;-61
2022/12/11 06:56:03;;;;;;;53.40;25.90;;;;;;;-0.04;92.28;99742.34;5080660;28;20495;-62
2022/12/11 06:58:30;;;;;;;52.40;23.70;;;;;;;-0.05;92.56;99748.56;5062087;28;20915;-62
2022/12/11 07:00:57;;;;;;;60.00;23.27;;;;;;;0.06;92.29;99750.59;5070169;28;20504;-62
2022/12/11 07:03:23;;;;;;;64.53;26.73;;;;;;;-0.04;92.32;99753.72;5081693;28;20476;-63
2022/12/11 07:05:50;;;;;;;55.23;23.50;;;;;;;0.04;92.88;99760.34;5081410;28;20570;-66
2022/12/11 07:08:16;;;;;;;57.93;23.50;;;;;;;0.14;92.46;99751.84;5087544;28;20483;-65
2022/12/11 07:10:43;;;;;;;50.27;23.63;;;;;;;0.21;91.99;99754.13;5081034;28;20544;-65
2022/12/11 07:13:11;;;;;;;56.50;22.80;;;;;;;0.19;91.31;99746.31;5086849;28;20447;-65
2022/12/11 07:15:38;;;;;;;45.77;22.97;;;;;;;0.18;91.10;99756.00;5101109;28;20503;-66
2022/12/11 07:18:04;;;;;;;47.00;20.73;;;;;;;0.17;90.91;99753.44;5102100;28;20483;-62
2022/12/11 07:20:31;;;;;;;54.27;22.70;;;;;;;0.15;91.36;99757.94;5101137;28;20498;-65
2022/12/11 07:22:58;;;;;;;58.20;23.07;;;;;;;0.18;90.31;99755.16;5101980;28;20482;-64
2022/12/11 07:25:24;;;;;;;49.97;22.73;;;;;;;0.25;90.48;99756.50;5101173;28;21005;-66
2022/12/11 07:27:51;;;;;;;57.40;23.73;;;;;;;0.25;90.33;99748.59;5101575;28;20515;-67
2022/12/11 07:30:19;;;;;;;50.17;26.13;;;;;;;0.18;90.27;99756.00;5100146;28;20454;-66
2022/12/11 07:32:45;;;;;;;63.27;23.87;;;;;;;0.13;90.14;99755.41;5088263;28;20546;-65
2022/12/11 07:35:12;;;;;;;55.00;26.37;;;;;;;0.13;90.37;99752.78;5085953;28;21147;-63
2022/12/11 07:37:40;;;;;;;58.50;23.00;;;;;;;0.03;89.79;99756.00;5093389;28;21075;-65
2022/12/11 07:40:08;;;;;;;54.77;21.53;;;;;;;0.08;89.34;99753.97;5097818;28;20959;-65
2022/12/11 07:42:35;;;;;;;49.87;23.13;;;;;;;-0.01;90.66;99757.97;5084310;28;20492;-65
2022/12/11 07:45:02;;;;;;;57.60;22.40;;;;;;;-0.02;90.44;99765.00;5090819;28;20499;-64
2022/12/11 07:47:29;;;;;;;51.47;21.60;;;;;;;0.02;90.60;99770.06;5080700;28;20507;-65
2022/12/11 07:49:56;;;;;;;49.70;22.63;;;;;;;-0.09;91.34;99766.25;5091425;28;20465;-64
2022/12/11 07:52:23;;;;;;;43.63;19.63;;;;;;;0.02;91.28;99768.31;5079815;28;21020;-65
2022/12/11 07:54:50;;;;;;;51.93;22.90;;;;;;;-0.23;91.14;99771.44;5086980;28;20464;-65
2022/12/11 07:57:16;;;;;;;52.03;20.97;;;;;;;0.07;90.60;99765.41;5081544;28;20567;-65
2022/12/11 07:59:43;;;;;;;51.17;19.93;;;;;;;0.01;90.41;99778.91;5080877;28;20461;-65
2022/12/11 08:02:10;;;;;;;52.67;22.63;;;;;;;0.05;90.20;99775.16;5082493;28;20504;-65
2022/12/11 08:04:38;;;;;;;53.83;20.50;;;;;;;-0.02;90.54;99772.91;5080377;28;20520;-65
2022/12/11 08:07:05;;;;;;;52.50;21.63;;;;;;;0.02;90.95;99770.06;5081464;28;20473;-65
2022/12/11 08:09:32;;;;;;;53.67;20.80;;;;;;;0.16;90.85;99776.25;5077207;28;20483;-64
2022/12/11 08:11:58;;;;;;;53.47;20.17;;;;;;;0.13;89.87;99773.81;5079294;28;20500;-64
2022/12/11 08:14:25;;;;;;;45.97;19.00;;;;;;;0.03;89.93;99763.91;5082625;28;20516;-65
2022/12/11 08:16:51;;;;;;;58.00;22.83;;;;;;;-0.05;90.73;99764.34;5078654;28;20602;-65
2022/12/11 08:19:18;;;;;;;49.73;21.40;;;;;;;-0.06;90.71;99762.63;5080262;28;20471;-65
2022/12/11 08:21:46;;;;;;;60.77;27.50;;;;;;;0.07;91.47;99766.28;5080536;28;20511;-62
2022/12/11 08:24:15;;;;;;;56.37;25.60;;;;;;;0.21;91.22;99772.53;5080757;28;20440;-65
2022/12/11 08:26:42;;;;;;;49.03;23.50;;;;;;;0.18;91.46;99757.78;5079002;28;20472;-64
2022/12/11 08:29:09;;;;;;;49.50;22.17;;;;;;;0.24;91.52;99769.72;5079339;28;20456;-65
2022/12/11 08:31:36;;;;;;;49.00;20.87;;;;;;;0.25;91.26;99767.00;5078195;28;20488;-63
2022/12/11 08:34:03;;;;;;;53.83;21.50;;;;;;;0.07;91.48;99775.91;5076242;28;20559;-65
2022/12/11 08:36:29;;;;;;;47.70;20.10;;;;;;;0.07;91.42;99774.16;5078446;28;20476;-65
2022/12/11 08:38:58;;;;;;;55.50;21.40;;;;;;;0.25;91.42;99767.00;5061251;28;20492;-67
2022/12/11 08:41:26;;;;;;;53.17;21.37;;;;;;;0.32;91.63;99770.97;5071836;28;20477;-66
2022/12/11 08:43:53;;;;;;;55.40;25.23;;;;;;;0.39;91.23;99763.59;5060140;28;20434;-67
2022/12/11 08:46:21;;;;;;;59.60;24.90;;;;;;;0.42;90.78;99762.56;5060894;28;20979;-69
2022/12/11 08:48:47;;;;;;;46.27;19.43;;;;;;;0.31;90.70;99777.19;5058807;28;20484;-67
2022/12/11 08:51:16;;;;;;;64.63;24.40;;;;;;;0.35;90.61;99769.97;5075051;28;20500;-68
2022/12/11 08:53:43;;;;;;;56.67;21.93;;;;;;;0.36;90.50;99774.28;5064038;28;20525;-66
2022/12/11 08:56:13;;;;;;;48.13;17.53;;;;;;;0.31;90.62;99777.19;5059334;28;20479;-67
2022/12/11 08:58:40;;;;;;;51.80;21.47;;;;;;;0.26;90.57;99778.38;5063363;28;20461;-68
2022/12/11 09:01:08;;;;;;;50.00;20.83;;;;;;;0.35;90.33;99780.50;5059855;28;20484;-68
2022/12/11 09:03:35;;;;;;;48.00;19.43;;;;;;;0.33;90.41;99780.56;5068346;28;20437;-66
2022/12/11 09:06:05;;;;;;;39.50;18.13;;;;;;;0.24;91.07;99775.81;5073484;28;20484;-61
2022/12/11 09:08:32;;;;;;;51.40;18.90;;;;;;;0.25;91.16;99781.94;5051354;28;20484;-60
2022/12/11 09:11:03;;;;;;;50.13;19.13;;;;;;;0.25;91.44;99774.91;5074901;28;20500;-60
2022/12/11 09:13:31;;;;;;;62.00;18.40;;;;;;;0.43;91.11;99773.00;5060471;28;20801;-60
2022/12/11 09:15:57;;;;;;;49.47;17.97;;;;;;;0.30;90.87;99779.91;5072890;28;20488;-61
2022/12/11 09:18:24;;;;;;;43.53;18.47;;;;;;;0.26;91.31;99768.72;5063183;28;20472;-61
2022/12/11 09:20:58;;;;;;;45.97;19.40;;;;;;;0.30;91.65;99774.66;5062909;28;20511;-60
2022/12/11 09:23:25;;;;;;;44.97;19.90;;;;;;;0.30;91.42;99782.53;5064314;28;20532;-60
2022/12/11 09:25:51;;;;;;;38.63;18.33;;;;;;;0.22;91.49;99775.06;5050554;28;20505;-61
2022/12/11 09:28:18;;;;;;;38.97;17.50;;;;;;;0.34;90.92;99782.25;5062792;28;20556;-60
2022/12/11 09:30:47;;;;;;;49.20;20.60;;;;;;;0.14;91.31;99777.28;5063037;28;20527;-60
2022/12/11 09:33:14;;;;;;;40.93;18.03;;;;;;;0.10;91.77;99776.59;5062057;28;20651;-60
2022/12/11 09:35:41;;;;;;;42.67;18.93;;;;;;;0.14;91.62;99772.88;5062605;28;20484;-60
2022/12/11 09:38:09;;;;;;;48.90;18.13;;;;;;;0.23;91.23;99768.88;5086969;28;21063;-60
2022/12/11 09:40:40;;;;;;;44.97;19.83;;;;;;;0.35;90.65;99768.19;5083887;28;20492;-61
2022/12/11 09:43:15;;;;;;;41.37;18.10;;;;;;;0.27;90.49;99767.75;5087640;28;20463;-60
2022/12/11 09:45:42;;;;;;;39.60;17.37;;;;;;;0.45;90.27;99762.38;5082452;28;20495;-60
2022/12/11 09:48:11;;;;;;;52.17;20.10;;;;;;;0.31;89.84;99765.81;5094151;28;20542;-60
2022/12/11 09:50:37;;;;;;;47.23;20.07;;;;;;;0.22;90.31;99759.28;5094142;28;21052;-60
2022/12/11 09:53:08;;;;;;;36.67;17.30;;;;;;;0.21;89.68;99764.63;5083370;28;20553;-61
2022/12/11 09:55:40;;;;;;;38.47;19.77;;;;;;;0.16;89.30;99749.13;5089070;28;20515;-60
2022/12/11 09:58:17;;;;;;;38.67;16.93;;;;;;;0.33;88.67;99759.53;5089934;28;20459;-61
2022/12/11 10:00:47;;;;;;;36.43;17.70;;;;;;;0.11;88.98;99745.91;5091079;28;20506;-61
2022/12/11 10:03:51;;;;;;;44.20;18.93;;;;;;;0.18;89.85;99748.09;5084480;28;20454;-61
2022/12/11 10:06:21;;;;;;;41.83;20.77;;;;;;;0.27;90.16;99749.38;5089292;28;20520;-61
2022/12/11 10:08:56;;;;;;;35.90;17.57;;;;;;;0.28;90.30;99755.47;5088783;28;20509;-61
2022/12/11 10:11:36;;;;;;;38.90;18.53;;;;;;;0.42;89.87;99760.78;5087793;28;20475;-61
2022/12/11 10:14:08;;;;;;;40.50;18.40;;;;;;;0.15;90.70;99752.69;5071206;28;20452;-61
2022/12/11 10:16:38;;;;;;;38.67;18.40;;;;;;;0.08;91.51;99759.22;5081059;28;20475;-61
2022/12/11 10:19:06;;;;;;;32.70;18.40;;;;;;;0.14;91.43;99750.97;5086898;28;20522;-61
2022/12/11 10:21:38;;;;;;;34.07;18.77;;;;;;;0.23;91.52;99752.28;5086450;28;20483;-61
2022/12/11 10:24:09;;;;;;;38.07;21.47;;;;;;;0.30;91.26;99750.97;5082988;28;20452;-61
2022/12/11 10:26:39;;;;;;;39.27;18.83;;;;;;;0.06;91.29;99740.06;5080830;28;20878;-61
2022/12/11 10:29:12;;;;;;;39.00;17.73;;;;;;;0.07;92.28;99747.88;5082521;28;20866;-60
2022/12/11 10:31:46;;;;;;;39.40;21.63;;;;;;;0.26;91.95;99736.31;5080923;28;20500;-61
2022/12/11 10:34:19;;;;;;;30.90;17.03;;;;;;;0.30;91.04;99738.69;5081729;28;20495;-62
2022/12/11 10:36:45;;;;;;;33.20;18.67;;;;;;;0.26;91.07;99731.03;5081184;28;20541;-61
2022/12/11 10:39:14;;;;;;;33.90;18.80;;;;;;;0.29;91.14;99731.72;5081102;28;20521;-61
2022/12/11 10:41:43;;;;;;;39.70;19.47;;;;;;;0.33;91.24;99729.75;5081603;28;20495;-61
2022/12/11 10:44:16;;;;;;;40.70;27.13;;;;;;;0.37;90.80;99734.75;5082446;28;20452;-62
2022/12/11 10:46:43;;;;;;;41.73;25.47;;;;;;;0.47;90.33;99736.84;5080983;28;20468;-61
2022/12/11 10:49:23;;;;;;;41.10;23.33;;;;;;;0.41;90.20;99738.06;5083771;28;20448;-61
2022/12/11 10:51:50;;;;;;;45.33;21.97;;;;;;;0.18;90.67;99740.22;5080396;28;20479;-62
2022/12/11 10:54:29;;;;;;;37.00;20.90;;;;;;;0.27;90.98;99733.59;5087686;28;20452;-61
2022/12/11 10:56:55;;;;;;;33.03;16.90;;;;;;;0.60;94.75;99737.00;5081028;28;20480;-61
2022/12/11 10:59:24;;;;;;;33.80;18.63;;;;;;;1.34;95.68;99733.41;5098135;28;20482;-61
2022/12/11 11:01:51;;;;;;;36.40;19.00;;;;;;;1.39;91.58;99738.38;5101445;28;20475;-60
2022/12/11 11:04:22;;;;;;;33.70;19.20;;;;;;;0.85;88.91;99742.50;5102395;28;20462;-61
2022/12/11 11:06:50;;;;;;;40.83;19.10;;;;;;;0.68;88.35;99740.88;5094616;28;21350;-61
2022/12/11 11:09:31;;;;;;;38.17;20.07;;;;;;;0.59;88.94;99744.03;5100872;28;20461;-60
2022/12/11 11:11:58;;;;;;;39.03;19.63;;;;;;;0.51;89.18;99741.84;5101706;28;20535;-60
2022/12/11 11:14:25;;;;;;;34.53;19.57;;;;;;;0.47;89.76;99744.72;5101964;28;20427;-60
2022/12/11 11:16:56;;;;;;;31.17;19.63;;;;;;;0.47;89.71;99739.47;5100876;28;20548;-61
2022/12/11 11:19:28;;;;;;;33.30;17.80;;;;;;;0.33;90.46;99741.13;5101571;28;20467;-69
2022/12/11 11:21:57;;;;;;;35.63;19.50;;;;;;;0.17;91.02;99735.03;5101709;28;20491;-69
2022/12/11 11:24:29;;;;;;;36.37;20.13;;;;;;;0.31;90.21;99729.88;5101548;28;20479;-69
2022/12/11 11:26:56;;;;;;;38.43;20.90;;;;;;;0.12;91.01;99726.56;5100608;28;20468;-69
2022/12/11 11:29:27;;;;;;;28.97;16.50;;;;;;;0.02;91.43;99728.03;5101876;28;20475;-70
2022/12/11 11:31:54;;;;;;;33.33;18.00;;;;;;;0.07;91.62;99723.34;5100614;28;21282;-69
2022/12/11 11:34:21;;;;;;;30.67;17.47;;;;;;;-0.05;91.47;99725.75;5092502;28;20519;-70
2022/12/11 11:36:59;;;;;;;23.77;14.17;;;;;;;-0.12;91.09;99721.78;5080033;28;20488;-68
2022/12/11 11:39:31;;;;;;;30.07;17.87;;;;;;;-0.05;91.22;99722.28;5098222;28;20447;-70